createdAt,value
2023-03-26T00:01:46.344Z,6.84
2023-03-26T00:04:14.221Z,6.86
2023-03-26T00:06:41.879Z,6.87
2023-03-26T00:09:12.980Z,6.89
2023-03-26T00:11:41.231Z,6.91
2023-03-26T00:14:13.567Z,6.93
2023-03-26T00:16:42.596Z,6.93
2023-03-26T00:19:11.001Z,6.92
2023-03-26T00:21:38.659Z,6.91
2023-03-26T00:24:09.361Z,6.91
2023-03-26T00:26:38.383Z,6.91
2023-03-26T00:29:08.085Z,6.92
2023-03-26T00:31:37.919Z,6.92
2023-03-26T00:34:05.744Z,6.91
2023-03-26T00:36:35.941Z,6.89
2023-03-26T00:39:06.332Z,6.88
2023-03-26T00:41:37.133Z,6.85
2023-03-26T00:44:05.370Z,6.83
2023-03-26T00:46:33.127Z,6.81
2023-03-26T00:49:01.804Z,6.79
2023-03-26T00:51:29.882Z,6.77
2023-03-26T00:53:57.946Z,6.74
2023-03-26T00:56:26.317Z,6.72
2023-03-26T00:58:54.017Z,6.69
2023-03-26T01:01:27.856Z,6.69
2023-03-26T01:04:08.713Z,6.68
2023-03-26T01:06:39.437Z,6.69
2023-03-26T01:09:14.560Z,6.69
2023-03-26T01:11:42.912Z,6.70
2023-03-26T01:14:16.060Z,6.69
2023-03-26T01:16:47.015Z,6.66
2023-03-26T01:19:25.779Z,6.64
2023-03-26T01:21:53.558Z,6.61
2023-03-26T01:24:22.121Z,6.59
2023-03-26T01:27:07.836Z,6.58
2023-03-26T01:29:44.584Z,6.58
2023-03-26T01:32:24.073Z,6.58
2023-03-26T01:34:59.103Z,6.60
2023-03-26T01:37:42.828Z,6.62
2023-03-26T01:40:14.165Z,6.63
2023-03-26T01:42:48.035Z,6.61
2023-03-26T01:45:18.924Z,6.57
2023-03-26T01:47:47.147Z,6.56
2023-03-26T01:50:15.551Z,6.54
2023-03-26T01:52:43.443Z,6.51
2023-03-26T01:55:12.697Z,6.48
2023-03-26T01:57:47.354Z,6.47
2023-03-26T02:00:31.102Z,6.46
2023-03-26T02:03:01.963Z,6.46
2023-03-26T02:05:37.828Z,6.47
2023-03-26T02:08:11.948Z,6.49
2023-03-26T02:10:41.827Z,6.51
2023-03-26T02:13:10.402Z,6.51
2023-03-26T02:15:39.110Z,6.51
2023-03-26T02:18:10.754Z,6.51
2023-03-26T02:20:38.505Z,6.51
2023-03-26T02:23:06.787Z,6.51
2023-03-26T02:25:36.697Z,6.53
2023-03-26T02:28:05.384Z,6.54
2023-03-26T02:30:33.605Z,6.54
2023-03-26T02:33:02.322Z,6.55
2023-03-26T02:35:41.269Z,6.53
2023-03-26T02:38:10.438Z,6.52
2023-03-26T02:40:38.501Z,6.52
2023-03-26T02:43:06.704Z,6.52
2023-03-26T02:45:36.300Z,6.50
2023-03-26T02:48:20.176Z,6.50
2023-03-26T02:50:56.782Z,6.50
2023-03-26T02:53:41.154Z,6.50
2023-03-26T02:56:29.455Z,6.52
2023-03-26T02:59:11.953Z,6.54
2023-03-26T03:01:43.088Z,6.55
2023-03-26T03:04:12.100Z,6.55
2023-03-26T03:06:40.438Z,6.55
2023-03-26T03:09:11.229Z,6.55
2023-03-26T03:11:39.729Z,6.54
2023-03-26T03:14:08.441Z,6.53
2023-03-26T03:16:36.476Z,6.53
2023-03-26T03:19:07.112Z,6.53
2023-03-26T03:21:39.293Z,6.53
2023-03-26T03:24:08.475Z,6.54
2023-03-26T03:26:45.773Z,6.56
2023-03-26T03:29:33.827Z,6.57
2023-03-26T03:32:22.736Z,6.59
2023-03-26T03:34:53.152Z,6.60
2023-03-26T03:37:21.222Z,6.62
2023-03-26T03:39:52.401Z,6.62
2023-03-26T03:42:21.888Z,6.60
2023-03-26T03:44:51.440Z,6.59
2023-03-26T03:47:39.556Z,6.59
2023-03-26T03:50:08.257Z,6.58
2023-03-26T03:52:37.023Z,6.58
2023-03-26T03:55:05.388Z,6.56
2023-03-26T03:57:41.471Z,6.54
2023-03-26T04:00:14.981Z,6.54
2023-03-26T04:02:47.551Z,6.56
2023-03-26T04:05:15.836Z,6.58
2023-03-26T04:07:46.957Z,6.59
2023-03-26T04:10:30.604Z,6.60
2023-03-26T04:13:14.857Z,6.60
2023-03-26T04:15:58.336Z,6.59
2023-03-26T04:18:27.633Z,6.59
2023-03-26T04:20:57.224Z,6.59
2023-03-26T04:23:29.030Z,6.58
2023-03-26T04:26:06.303Z,6.57
2023-03-26T04:28:50.447Z,6.59
2023-03-26T04:31:29.019Z,6.59
2023-03-26T04:34:05.527Z,6.59
2023-03-26T04:36:35.530Z,6.59
2023-03-26T04:39:05.237Z,6.59
2023-03-26T04:41:53.984Z,6.59
2023-03-26T04:44:25.210Z,6.60
2023-03-26T04:47:00.939Z,6.59
2023-03-26T04:49:36.209Z,6.59
2023-03-26T04:52:04.283Z,6.58
2023-03-26T04:54:47.235Z,6.57
2023-03-26T04:57:22.958Z,6.57
2023-03-26T04:59:54.928Z,6.59
2023-03-26T05:02:23.007Z,6.59
2023-03-26T05:04:53.529Z,6.61
2023-03-26T05:07:23.813Z,6.64
2023-03-26T05:09:57.457Z,6.66
2023-03-26T05:12:41.520Z,6.70
2023-03-26T05:15:13.605Z,6.71
2023-03-26T05:17:55.298Z,6.72
2023-03-26T05:20:30.111Z,6.71
2023-03-26T05:22:58.021Z,6.70
2023-03-26T05:25:37.613Z,6.68
2023-03-26T05:28:09.045Z,6.67
2023-03-26T05:30:43.653Z,6.69
2023-03-26T05:33:11.837Z,6.70
2023-03-26T05:35:58.315Z,6.71
2023-03-26T05:38:28.384Z,6.71
2023-03-26T05:41:05.003Z,6.70
2023-03-26T05:43:33.720Z,6.69
2023-03-26T05:46:08.098Z,6.69
2023-03-26T05:48:37.998Z,6.68
2023-03-26T05:51:06.459Z,6.69
2023-03-26T05:53:34.926Z,6.72
2023-03-26T05:56:18.711Z,6.76
2023-03-26T05:59:02.465Z,6.83
2023-03-26T06:01:46.230Z,6.88
2023-03-26T06:04:17.545Z,6.90
2023-03-26T06:06:57.340Z,6.91
2023-03-26T06:09:25.233Z,6.93
2023-03-26T06:11:53.334Z,6.96
2023-03-26T06:14:21.027Z,6.95
2023-03-26T06:17:06.666Z,6.97
2023-03-26T06:19:54.489Z,6.97
2023-03-26T06:22:26.259Z,6.98
2023-03-26T06:25:12.390Z,6.97
2023-03-26T06:28:03.561Z,6.94
2023-03-26T06:30:47.221Z,6.95
2023-03-26T06:33:24.666Z,6.98
2023-03-26T06:35:52.848Z,6.99
2023-03-26T06:38:20.660Z,7.03
2023-03-26T06:40:48.442Z,7.05
2023-03-26T06:43:37.365Z,7.08
2023-03-26T06:46:18.826Z,7.15
2023-03-26T06:49:03.024Z,7.23
2023-03-26T06:51:48.929Z,7.31
2023-03-26T06:54:40.536Z,7.36
2023-03-26T06:57:25.799Z,7.39
2023-03-26T07:00:10.075Z,7.44
2023-03-26T07:02:53.929Z,7.50
2023-03-26T07:05:38.413Z,7.51
2023-03-26T07:08:26.613Z,7.49
2023-03-26T07:11:22.333Z,7.48
2023-03-26T07:14:05.103Z,7.50
2023-03-26T07:16:49.086Z,7.54
2023-03-26T07:19:33.214Z,7.56
2023-03-26T07:22:02.462Z,7.55
2023-03-26T07:24:46.591Z,7.53
2023-03-26T07:27:57.556Z,7.50
2023-03-26T07:30:58.288Z,7.50
2023-03-26T07:33:53.796Z,7.48
2023-03-26T07:36:37.717Z,7.46
2023-03-26T07:39:38.433Z,7.42
2023-03-26T07:42:29.773Z,7.38
2023-03-26T07:45:14.514Z,7.41
2023-03-26T07:47:58.820Z,7.48
2023-03-26T07:50:43.273Z,7.59
2023-03-26T07:53:26.433Z,7.77
2023-03-26T07:56:15.963Z,7.98
2023-03-26T07:59:23.070Z,8.15
2023-03-26T08:02:23.065Z,8.25
2023-03-26T08:05:19.930Z,8.32
2023-03-26T08:08:08.145Z,8.40
2023-03-26T08:10:43.191Z,8.45
2023-03-26T08:13:18.040Z,8.42
2023-03-26T08:15:53.331Z,8.38
2023-03-26T08:18:21.799Z,8.27
2023-03-26T08:20:51.474Z,8.15
2023-03-26T08:23:35.458Z,7.98
2023-03-26T08:26:35.371Z,7.70
2023-03-26T08:29:20.858Z,7.32
2023-03-26T08:31:49.302Z,6.94
2023-03-26T08:34:16.965Z,6.67
2023-03-26T08:36:44.734Z,6.47
2023-03-26T08:39:13.028Z,6.28
2023-03-26T08:41:56.679Z,6.17
2023-03-26T08:44:40.904Z,6.14
2023-03-26T08:47:24.710Z,6.15
2023-03-26T08:50:08.404Z,6.18
2023-03-26T08:52:56.878Z,6.20
2023-03-26T08:55:24.617Z,6.24
2023-03-26T08:58:08.954Z,6.31
2023-03-26T09:00:48.810Z,6.44
2023-03-26T09:03:33.513Z,6.59
2023-03-26T09:06:17.244Z,6.72
2023-03-26T09:08:54.307Z,6.81
2023-03-26T09:11:28.617Z,6.82
2023-03-26T09:14:06.186Z,6.82
2023-03-26T09:16:51.070Z,6.78
2023-03-26T09:19:24.952Z,6.75
2023-03-26T09:22:05.696Z,6.72
2023-03-26T09:24:50.406Z,6.73
2023-03-26T09:27:34.266Z,6.91
2023-03-26T09:30:15.549Z,6.97
2023-03-26T09:32:47.073Z,6.99
2023-03-26T09:35:15.730Z,7.04
2023-03-26T09:37:56.740Z,7.13
2023-03-26T09:40:44.044Z,7.27
2023-03-26T09:43:27.887Z,7.40
2023-03-26T09:46:11.745Z,7.46
2023-03-26T09:48:48.375Z,7.54
2023-03-26T09:51:16.866Z,7.62
2023-03-26T09:53:47.262Z,7.69
2023-03-26T09:56:30.951Z,7.73
2023-03-26T09:59:13.652Z,7.80
2023-03-26T10:01:44.862Z,7.97
2023-03-26T10:04:28.809Z,8.09
2023-03-26T10:07:06.314Z,8.26
2023-03-26T10:09:38.517Z,8.29
2023-03-26T10:12:18.737Z,8.28
2023-03-26T10:14:49.144Z,8.28
2023-03-26T10:17:33.628Z,8.25
2023-03-26T10:20:28.512Z,8.20
2023-03-26T10:22:56.694Z,8.33
2023-03-26T10:25:27.479Z,8.51
2023-03-26T10:28:11.078Z,8.57
2023-03-26T10:30:55.009Z,8.64
2023-03-26T10:33:28.150Z,8.78
2023-03-26T10:36:12.138Z,8.79
2023-03-26T10:38:55.776Z,8.85
2023-03-26T10:41:26.905Z,8.91
2023-03-26T10:44:10.785Z,8.83
2023-03-26T10:46:54.426Z,8.81
2023-03-26T10:49:39.712Z,8.86
2023-03-26T10:52:18.430Z,8.89
2023-03-26T10:55:02.181Z,8.93
2023-03-26T10:57:31.755Z,8.96
2023-03-26T11:00:05.140Z,9.00
2023-03-26T11:02:53.104Z,9.11
2023-03-26T11:05:29.015Z,9.25
2023-03-26T11:08:04.290Z,9.35
2023-03-26T11:10:45.704Z,9.34
2023-03-26T11:13:18.541Z,9.37
2023-03-26T11:15:53.376Z,9.39
2023-03-26T11:18:21.078Z,9.38
2023-03-26T11:21:19.207Z,9.31
2023-03-26T11:24:05.164Z,9.19
2023-03-26T11:26:41.500Z,9.17
2023-03-26T11:29:31.820Z,9.16
2023-03-26T11:32:03.828Z,9.13
2023-03-26T11:34:47.498Z,9.07
2023-03-26T11:37:18.758Z,8.96
2023-03-26T11:39:51.458Z,8.88
2023-03-26T11:42:22.484Z,8.83
2023-03-26T11:44:55.970Z,8.80
2023-03-26T11:47:26.508Z,8.88
2023-03-26T11:49:55.785Z,9.05
2023-03-26T11:52:23.510Z,9.27
2023-03-26T11:54:51.176Z,9.48
2023-03-26T11:57:26.502Z,9.60
2023-03-26T12:00:04.140Z,9.58
2023-03-26T12:02:41.359Z,9.48
2023-03-26T12:05:27.236Z,9.35
2023-03-26T12:07:57.066Z,9.28
2023-03-26T12:10:28.265Z,9.33
2023-03-26T12:12:59.219Z,9.47
2023-03-26T12:15:28.304Z,9.67
2023-03-26T12:17:58.021Z,9.85
2023-03-26T12:20:25.734Z,9.93
2023-03-26T12:22:58.908Z,9.95
2023-03-26T12:25:31.056Z,9.88
2023-03-26T12:27:59.046Z,9.63
2023-03-26T12:30:30.686Z,9.45
2023-03-26T12:33:03.803Z,9.36
2023-03-26T12:35:34.769Z,9.44
2023-03-26T12:38:19.075Z,9.63
2023-03-26T12:40:47.680Z,9.70
2023-03-26T12:44:51.245Z,9.70
2023-03-26T12:47:55.511Z,9.84
2023-03-26T12:49:22.229Z,9.88
2023-03-26T12:51:53.244Z,10.04
2023-03-26T12:54:23.939Z,10.08
2023-03-26T12:57:12.493Z,10.04
2023-03-26T12:59:57.106Z,10.08
2023-03-26T13:02:41.230Z,10.12
2023-03-26T13:05:09.223Z,9.95
2023-03-26T13:07:50.621Z,9.83
2023-03-26T13:10:18.292Z,9.85
2023-03-26T13:13:02.120Z,9.93
2023-03-26T13:15:36.577Z,10.61
2023-03-26T13:18:21.324Z,11.70
2023-03-26T13:20:52.289Z,13.26
2023-03-26T13:23:29.116Z,14.04
2023-03-26T13:26:02.905Z,14.78
2023-03-26T13:28:54.056Z,15.74
2023-03-26T13:31:24.599Z,16.02
2023-03-26T13:34:03.411Z,15.37
2023-03-26T13:36:37.098Z,13.92
2023-03-26T13:39:13.994Z,12.68
2023-03-26T13:41:41.662Z,11.73
2023-03-26T13:44:25.283Z,10.79
2023-03-26T13:46:55.152Z,9.81
2023-03-26T13:49:36.892Z,9.10
2023-03-26T13:52:18.919Z,8.52
2023-03-26T13:54:49.484Z,8.21
2023-03-26T13:57:26.055Z,8.17
2023-03-26T13:59:57.267Z,8.27
2023-03-26T14:02:51.514Z,8.50
2023-03-26T14:05:35.348Z,9.00
2023-03-26T14:08:04.547Z,9.48
2023-03-26T14:10:36.229Z,9.87
2023-03-26T14:13:04.237Z,11.46
2023-03-26T14:15:47.963Z,13.69
2023-03-26T14:18:18.680Z,15.67
2023-03-26T14:20:49.395Z,16.88
2023-03-26T14:23:33.088Z,17.83
2023-03-26T14:26:01.118Z,18.10
2023-03-26T14:28:44.761Z,18.21
2023-03-26T14:31:35.354Z,18.38
2023-03-26T14:34:12.697Z,19.20
2023-03-26T14:36:56.381Z,19.25
2023-03-26T14:39:30.225Z,18.25
2023-03-26T14:42:13.824Z,17.06
2023-03-26T14:44:47.597Z,15.04
2023-03-26T14:47:19.058Z,13.83
2023-03-26T14:50:03.810Z,13.21
2023-03-26T14:52:34.464Z,12.69
2023-03-26T14:55:07.521Z,12.15
2023-03-26T14:57:52.241Z,11.59
2023-03-26T15:00:23.537Z,11.26
2023-03-26T15:03:09.930Z,11.33
2023-03-26T15:05:43.625Z,11.25
2023-03-26T15:08:33.848Z,11.44
2023-03-26T15:11:18.265Z,12.90
2023-03-26T15:13:45.919Z,13.75
2023-03-26T15:16:28.705Z,14.90
2023-03-26T15:19:13.369Z,16.18
2023-03-26T15:21:44.105Z,16.92
2023-03-26T15:24:31.140Z,17.20
2023-03-26T15:27:14.848Z,17.30
2023-03-26T15:30:05.644Z,17.35
2023-03-26T15:32:33.334Z,17.28
2023-03-26T15:35:15.249Z,16.81
2023-03-26T15:38:03.190Z,16.23
2023-03-26T15:40:41.586Z,15.39
2023-03-26T15:43:09.221Z,14.74
2023-03-26T15:45:38.563Z,13.78
2023-03-26T15:48:12.666Z,12.86
2023-03-26T15:50:57.720Z,12.17
2023-03-26T15:53:41.936Z,11.58
2023-03-26T15:56:25.874Z,11.26
2023-03-26T15:59:00.195Z,10.95
2023-03-26T16:01:46.263Z,10.75
2023-03-26T16:04:30.027Z,10.54
2023-03-26T16:07:09.342Z,10.35
2023-03-26T16:09:40.308Z,10.26
2023-03-26T16:12:24.001Z,10.15
2023-03-26T16:15:09.333Z,10.00
2023-03-26T16:17:53.467Z,9.94
2023-03-26T16:20:38.539Z,9.85
2023-03-26T16:23:19.177Z,9.76
2023-03-26T16:25:54.601Z,9.66
2023-03-26T16:28:38.950Z,9.59
2023-03-26T16:31:37.196Z,9.50
2023-03-26T16:34:08.970Z,9.35
2023-03-26T16:36:39.031Z,9.15
2023-03-26T16:39:08.255Z,8.95
2023-03-26T16:41:39.045Z,8.77
2023-03-26T16:44:13.515Z,8.63
2023-03-26T16:46:44.527Z,8.53
2023-03-26T16:49:12.377Z,8.46
2023-03-26T16:51:56.388Z,8.43
2023-03-26T16:54:29.166Z,8.39
2023-03-26T16:57:08.659Z,8.34
2023-03-26T17:00:08.025Z,8.26
2023-03-26T17:02:52.136Z,8.22
2023-03-26T17:05:23.069Z,8.23
2023-03-26T17:07:57.042Z,8.24
2023-03-26T17:10:31.835Z,8.24
2023-03-26T17:13:20.418Z,8.22
2023-03-26T17:15:53.097Z,8.18
2023-03-26T17:18:28.390Z,8.10
2023-03-26T17:21:09.048Z,7.96
2023-03-26T17:23:53.243Z,7.84
2023-03-26T17:26:26.553Z,7.70
2023-03-26T17:28:57.458Z,7.60
2023-03-26T17:31:31.537Z,7.52
2023-03-26T17:34:15.733Z,7.49
2023-03-26T17:36:43.992Z,7.46
2023-03-26T17:39:19.506Z,7.45
2023-03-26T17:41:54.369Z,7.44
2023-03-26T17:44:38.249Z,7.44
2023-03-26T17:47:10.992Z,7.44
2023-03-26T17:49:39.476Z,7.43
2023-03-26T17:52:24.648Z,7.40
2023-03-26T17:54:55.303Z,7.36
2023-03-26T17:57:39.976Z,7.28
2023-03-26T18:00:16.254Z,7.26
2023-03-26T18:02:56.197Z,7.23
2023-03-26T18:05:26.456Z,7.19
2023-03-26T18:08:10.136Z,7.19
2023-03-26T18:10:54.166Z,7.11
2023-03-26T18:13:22.036Z,7.06
2023-03-26T18:15:49.906Z,7.00
2023-03-26T18:18:33.976Z,6.96
2023-03-26T18:21:07.055Z,6.90
2023-03-26T18:23:39.472Z,6.84
2023-03-26T18:26:11.071Z,6.77
2023-03-26T18:28:43.371Z,6.69
2023-03-26T18:31:23.316Z,6.69
2023-03-26T18:33:56.943Z,6.69
2023-03-26T18:36:27.670Z,6.68
2023-03-26T18:38:59.205Z,6.70
2023-03-26T18:41:31.271Z,6.72
2023-03-26T18:44:03.950Z,6.74
2023-03-26T18:46:32.933Z,6.73
2023-03-26T18:49:02.755Z,6.73
2023-03-26T18:51:31.964Z,6.74
2023-03-26T18:54:01.184Z,6.75
2023-03-26T18:56:45.252Z,6.72
2023-03-26T18:59:31.802Z,6.71
2023-03-26T19:02:00.142Z,6.70
2023-03-26T19:04:31.648Z,6.68
2023-03-26T19:07:00.226Z,6.66
2023-03-26T19:09:32.078Z,6.63
2023-03-26T19:12:06.743Z,6.64
2023-03-26T19:14:50.959Z,6.63
2023-03-26T19:17:18.621Z,6.61
2023-03-26T19:19:46.698Z,6.58
2023-03-26T19:22:16.204Z,6.60
2023-03-26T19:24:44.309Z,6.69
2023-03-26T19:27:12.645Z,6.76
2023-03-26T19:29:43.285Z,6.79
2023-03-26T19:32:18.754Z,6.85
2023-03-26T19:34:48.040Z,6.88
2023-03-26T19:37:17.944Z,6.86
2023-03-26T19:39:51.234Z,6.84
2023-03-26T19:42:18.892Z,6.86
2023-03-26T19:44:46.784Z,6.84
2023-03-26T19:47:16.636Z,6.83
2023-03-26T19:49:49.735Z,6.78
2023-03-26T19:52:25.726Z,6.69
2023-03-26T19:55:01.424Z,6.55
2023-03-26T19:57:34.140Z,6.50
2023-03-26T20:00:05.043Z,6.45
2023-03-26T20:02:34.089Z,6.33
2023-03-26T20:05:01.884Z,6.17
2023-03-26T20:07:35.949Z,6.05
2023-03-26T20:10:05.451Z,5.92
2023-03-26T20:12:33.457Z,5.81
2023-03-26T20:15:02.096Z,5.64
2023-03-26T20:17:30.969Z,5.46
2023-03-26T20:19:59.645Z,5.29
2023-03-26T20:22:27.360Z,5.14
2023-03-26T20:24:55.173Z,5.02
2023-03-26T20:27:23.015Z,4.92
2023-03-26T20:29:50.728Z,4.87
2023-03-26T20:32:23.686Z,4.84
2023-03-26T20:34:52.913Z,4.82
2023-03-26T20:37:20.685Z,4.81
2023-03-26T20:39:48.314Z,4.81
2023-03-26T20:42:16.313Z,4.84
2023-03-26T20:44:43.937Z,4.87
2023-03-26T20:47:12.596Z,4.93
2023-03-26T20:49:41.002Z,4.99
2023-03-26T20:52:09.577Z,5.06
2023-03-26T20:54:37.655Z,5.12
2023-03-26T20:57:05.435Z,5.15
2023-03-26T20:59:34.564Z,5.18
2023-03-26T21:02:02.812Z,5.17
2023-03-26T21:04:30.675Z,5.17
2023-03-26T21:07:07.063Z,5.19
2023-03-26T21:09:39.432Z,5.20
2023-03-26T21:12:23.342Z,5.21
2023-03-26T21:14:51.431Z,5.20
2023-03-26T21:17:24.121Z,5.16
2023-03-26T21:19:52.053Z,5.11
2023-03-26T21:22:19.705Z,5.03
2023-03-26T21:25:05.354Z,4.99
2023-03-26T21:27:59.341Z,4.97
2023-03-26T21:30:27.181Z,4.96
2023-03-26T21:32:55.073Z,4.94
2023-03-26T21:35:23.250Z,4.94
2023-03-26T21:37:52.407Z,4.94
2023-03-26T21:40:21.032Z,4.96
2023-03-26T21:42:50.927Z,4.97
2023-03-26T21:45:19.480Z,5.00
2023-03-26T21:47:47.772Z,5.01
2023-03-26T21:50:17.745Z,5.01
2023-03-26T21:52:48.872Z,5.01
2023-03-26T21:55:17.607Z,5.02
2023-03-26T21:57:51.248Z,5.02
2023-03-26T22:00:19.974Z,5.03
2023-03-26T22:02:48.412Z,5.00
2023-03-26T22:05:18.026Z,4.93
2023-03-26T22:08:02.091Z,4.88
2023-03-26T22:10:30.868Z,4.84
2023-03-26T22:12:58.802Z,4.80
2023-03-26T22:15:30.387Z,4.73
2023-03-26T22:18:02.217Z,4.67
2023-03-26T22:20:30.289Z,4.57
2023-03-26T22:22:58.895Z,4.47
2023-03-26T22:25:27.508Z,4.39
2023-03-26T22:27:55.243Z,4.39
2023-03-26T22:30:23.082Z,4.38
2023-03-26T22:32:51.698Z,4.37
2023-03-26T22:35:19.777Z,4.33
2023-03-26T22:37:47.661Z,4.34
2023-03-26T22:40:16.136Z,4.37
2023-03-26T22:42:44.123Z,4.37
2023-03-26T22:45:12.361Z,4.31
2023-03-26T22:47:40.170Z,4.27
2023-03-26T22:50:08.336Z,4.20
2023-03-26T22:52:36.704Z,4.15
2023-03-26T22:55:05.296Z,4.15
2023-03-26T22:57:33.462Z,4.18
2023-03-26T23:00:12.464Z,4.20
2023-03-26T23:02:40.740Z,4.20
2023-03-26T23:05:08.820Z,4.18
2023-03-26T23:07:37.405Z,4.13
2023-03-26T23:10:06.097Z,4.02
2023-03-26T23:12:33.733Z,3.94
2023-03-26T23:15:04.901Z,3.85
2023-03-26T23:17:34.111Z,3.78
2023-03-26T23:20:03.103Z,3.69
2023-03-26T23:22:31.574Z,3.59
2023-03-26T23:24:59.234Z,3.50
2023-03-26T23:27:27.305Z,3.42
2023-03-26T23:29:55.395Z,3.35
2023-03-26T23:32:25.234Z,3.29
2023-03-26T23:34:55.657Z,3.17
2023-03-26T23:37:23.626Z,3.02
2023-03-26T23:39:52.178Z,2.94
2023-03-26T23:42:28.716Z,2.89
2023-03-26T23:44:57.596Z,2.83
2023-03-26T23:47:25.590Z,2.77
2023-03-26T23:49:53.359Z,2.70
2023-03-26T23:52:21.011Z,2.64
2023-03-26T23:54:48.973Z,2.60
2023-03-26T23:57:18.444Z,2.61
2023-03-26T23:59:46.311Z,2.69
